Arendtsville, Pennsylvania
Current Conditions -  °F | °C
As of 12:53 AM on Thursday 23 Oct 2014 (Local Time) from KRYT Reporting Station
Clear Clear  
Wind Chill:   Ceiling: Unl
Heat Index:   Visibility: 10mi
Dew Point:   Wind: 5mph
Humidity: 71%   Direction: NA
Pressure: 29.93"   Gusts: NA
Location:  39.92°N, 77.3°W
Report Text: KRYT 230453Z AUTO VRB04KT 10SM CLR 09/04 A2993 RMK AO2 SLP136 T00940044 401280094 $
Loading
Personal Weather Stations






























Interactive Weather Map New forecast layout! Learn more

10-Day Weather Forecast

Advertisements
Track Severe Weather on mobile